Time;durP1;ratioP1;P1;durP2;ratioP2;P2;SDS_P1;SDS_P2;PMS_P1;PMS_P2;Temp;Humidity;BMP_temperature;BMP_pressure;BME280_temperature;BME280_humidity;BME280_pressure;Samples;Min_cycle;Max_cycle;Signal;HPM_P1;HPM_P2
2021/09/10 00:02:25;;;;;;;9.02;7.13;;;;;;;24.62;56.21;99395.97;6219365;23;20435;-80
2021/09/10 00:04:52;;;;;;;9.23;7.28;;;;;;;24.58;56.39;99392.00;6218976;23;20099;-79
2021/09/10 00:07:19;;;;;;;14.05;8.13;;;;;;;24.53;56.55;99392.56;6220059;23;20080;-79
2021/09/10 00:09:45;;;;;;;9.23;7.50;;;;;;;24.50;56.48;99394.78;6220648;23;20490;-79
2021/09/10 00:12:12;;;;;;;13.68;8.07;;;;;;;24.46;56.75;99397.88;6220034;23;20320;-79
2021/09/10 00:14:39;;;;;;;9.25;7.75;;;;;;;24.43;57.00;99403.63;6219445;23;20026;-79
2021/09/10 00:17:07;;;;;;;10.52;7.82;;;;;;;24.40;57.50;99403.16;6246521;23;20431;-79
2021/09/10 00:19:34;;;;;;;11.10;8.50;;;;;;;24.38;57.45;99394.44;6219517;23;20091;-79
2021/09/10 00:22:01;;;;;;;12.50;8.80;;;;;;;24.39;57.32;99398.78;6219513;23;20527;-79
2021/09/10 00:24:29;;;;;;;11.77;8.15;;;;;;;24.37;57.51;99395.47;6218914;23;20163;-79
2021/09/10 00:26:56;;;;;;;11.95;8.95;;;;;;;24.37;57.41;99400.84;6219024;23;20099;-79
2021/09/10 00:29:23;;;;;;;9.15;8.18;;;;;;;24.37;57.70;99401.66;6219505;23;20407;-79
2021/09/10 00:31:50;;;;;;;10.13;8.55;;;;;;;24.38;57.96;99397.13;6219510;23;20095;-79
2021/09/10 00:34:17;;;;;;;13.35;9.52;;;;;;;24.37;57.86;99403.53;6219571;23;20024;-79
2021/09/10 00:36:46;;;;;;;17.08;10.70;;;;;;;24.36;58.27;99400.00;6246394;23;20031;-79
2021/09/10 00:39:17;;;;;;;11.88;9.50;;;;;;;24.34;58.23;99405.56;6219584;23;20072;-79
2021/09/10 00:41:44;;;;;;;13.75;9.90;;;;;;;24.33;58.27;99394.97;6219912;23;20386;-79
2021/09/10 00:44:10;;;;;;;12.93;9.70;;;;;;;24.31;58.16;99400.56;6219451;23;20402;-79
2021/09/10 00:46:37;;;;;;;11.05;9.38;;;;;;;24.29;58.53;99391.03;6219415;23;20103;-79
2021/09/10 00:49:05;;;;;;;14.20;10.35;;;;;;;24.26;58.25;99384.13;6219318;23;20387;-79
2021/09/10 00:51:37;;;;;;;12.77;10.30;;;;;;;24.23;59.21;99391.75;6218574;23;20024;-79
2021/09/10 00:54:04;;;;;;;13.30;10.10;;;;;;;24.22;58.57;99390.91;6218476;23;20095;-79
2021/09/10 00:56:31;;;;;;;12.65;11.02;;;;;;;24.22;58.36;99398.16;6220282;23;20270;-79
2021/09/10 00:59:00;;;;;;;10.88;9.70;;;;;;;24.19;59.02;99397.50;6220835;23;20091;-79
2021/09/10 01:01:27;;;;;;;14.77;10.45;;;;;;;24.19;59.04;99402.06;6220522;23;20030;-79
2021/09/10 01:03:55;;;;;;;10.02;9.02;;;;;;;24.18;58.86;99405.78;6220546;23;20031;-79
2021/09/10 01:06:24;;;;;;;11.50;10.05;;;;;;;24.18;59.21;99400.41;6221556;23;20024;-79
2021/09/10 01:08:52;;;;;;;14.27;10.82;;;;;;;24.19;59.10;99404.75;6221527;23;20030;-79
2021/09/10 01:11:36;;;;;;;11.50;10.27;;;;;;;24.19;59.20;99405.56;6225210;23;20015;-79
2021/09/10 01:14:03;;;;;;;16.48;11.43;;;;;;;24.18;59.22;99400.41;6221171;23;20020;-79
2021/09/10 01:16:32;;;;;;;13.40;11.57;;;;;;;24.14;59.53;99399.91;6221416;23;20055;-79
2021/09/10 01:18:59;;;;;;;12.10;10.27;;;;;;;24.13;59.43;99397.41;6221788;23;20055;-79
2021/09/10 01:21:27;;;;;;;13.57;11.38;;;;;;;24.08;59.34;99395.25;6221800;23;20055;-79
2021/09/10 01:23:53;;;;;;;13.82;10.77;;;;;;;24.05;59.50;99396.47;6221023;23;20103;-79
2021/09/10 01:26:21;;;;;;;14.00;11.35;;;;;;;24.05;59.47;99390.25;6221799;23;20074;-79
2021/09/10 01:28:50;;;;;;;12.88;11.00;;;;;;;24.02;60.12;99383.38;6221814;23;20099;-79
2021/09/10 01:31:17;;;;;;;13.80;11.20;;;;;;;24.03;59.89;99384.22;6221662;23;20084;-79
2021/09/10 01:33:43;;;;;;;13.57;11.48;;;;;;;24.02;59.89;99395.97;6221318;23;20435;-79
2021/09/10 01:36:14;;;;;;;13.20;10.98;;;;;;;23.99;60.09;99397.19;6221662;23;20099;-79
2021/09/10 01:38:41;;;;;;;15.13;11.70;;;;;;;23.96;59.97;99397.56;6221836;23;20028;-79
2021/09/10 01:41:08;;;;;;;14.15;12.23;;;;;;;23.93;60.22;99388.00;6221934;23;20516;-79
2021/09/10 01:43:35;;;;;;;16.63;10.90;;;;;;;23.90;60.22;99387.53;6220914;23;20103;-79
2021/09/10 01:46:02;;;;;;;14.80;13.00;;;;;;;23.87;60.29;99393.28;6220898;23;20155;-79
2021/09/10 01:48:29;;;;;;;15.07;11.52;;;;;;;23.84;60.26;99399.84;6221180;23;20024;-79
2021/09/10 01:50:56;;;;;;;16.38;13.02;;;;;;;23.80;60.38;99399.41;6221152;23;20020;-79
2021/09/10 01:53:30;;;;;;;16.50;12.77;;;;;;;23.76;61.24;99408.84;6220833;23;20104;-79
2021/09/10 01:55:58;;;;;;;16.95;12.75;;;;;;;23.76;60.91;99405.31;6220782;23;20439;-79
2021/09/10 01:58:24;;;;;;;19.80;14.30;;;;;;;23.73;60.75;99403.81;6221626;23;20059;-79
2021/09/10 02:00:51;;;;;;;17.08;12.82;;;;;;;23.71;60.94;99413.94;6220693;23;20059;-79
2021/09/10 02:03:18;;;;;;;18.38;13.95;;;;;;;23.68;60.97;99409.75;6247440;23;20020;-79
2021/09/10 02:05:49;;;;;;;18.67;13.77;;;;;;;23.64;62.14;99419.22;6220802;23;20491;-79
2021/09/10 02:08:16;;;;;;;17.98;14.60;;;;;;;23.65;61.38;99417.34;6220783;23;20099;-79
2021/09/10 02:10:45;;;;;;;19.38;14.48;;;;;;;23.62;61.79;99417.72;6220842;23;20031;-79
2021/09/10 02:13:11;;;;;;;19.65;15.23;;;;;;;23.61;61.50;99406.13;6220886;23;20104;-79
2021/09/10 02:15:38;;;;;;;19.08;15.13;;;;;;;23.61;61.77;99413.34;6220846;23;20020;-79
2021/09/10 02:18:05;;;;;;;17.67;14.02;;;;;;;23.59;61.67;99407.34;6220768;23;20027;-79
2021/09/10 02:20:32;;;;;;;15.35;13.07;;;;;;;23.60;61.55;99403.63;6220837;23;20038;-79
2021/09/10 02:22:59;;;;;;;18.92;13.75;;;;;;;23.58;62.02;99411.84;6220795;23;20026;-79
2021/09/10 02:25:26;;;;;;;17.48;14.32;;;;;;;23.60;62.10;99409.84;6220425;23;20103;-79
2021/09/10 02:27:53;;;;;;;17.40;14.80;;;;;;;23.60;61.77;99414.38;6220622;23;20066;-79
2021/09/10 02:30:19;;;;;;;15.15;12.98;;;;;;;23.61;61.84;99418.72;6221199;23;20075;-79
2021/09/10 02:32:46;;;;;;;20.95;14.60;;;;;;;23.61;62.11;99411.50;6220293;23;20102;-79
2021/09/10 02:35:13;;;;;;;18.10;14.50;;;;;;;23.62;62.02;99420.41;6220392;23;20099;-79
2021/09/10 02:37:40;;;;;;;21.40;14.25;;;;;;;23.61;62.16;99418.72;6221056;23;20056;-79
2021/09/10 02:40:07;;;;;;;17.67;14.70;;;;;;;23.60;62.11;99414.38;6221625;23;20059;-79
2021/09/10 02:42:34;;;;;;;21.55;15.48;;;;;;;23.58;62.20;99417.22;6220316;23;20099;-79
2021/09/10 02:45:02;;;;;;;21.67;15.55;;;;;;;23.58;62.13;99421.78;6220291;23;20099;-79
2021/09/10 02:47:30;;;;;;;20.67;16.02;;;;;;;23.55;62.57;99413.06;6220887;23;20028;-79
2021/09/10 02:49:57;;;;;;;20.83;16.35;;;;;;;23.54;62.29;99414.09;6219535;23;20065;-79
2021/09/10 02:52:24;;;;;;;19.65;14.95;;;;;;;23.53;62.64;99414.25;6219844;23;20099;-79
2021/09/10 02:54:52;;;;;;;21.27;16.83;;;;;;;23.51;62.83;99417.13;6220617;23;20091;-79
2021/09/10 02:57:18;;;;;;;22.02;16.60;;;;;;;23.50;62.42;99420.81;6220692;23;20095;-79
2021/09/10 02:59:45;;;;;;;21.05;15.82;;;;;;;23.48;62.84;99420.19;6220720;23;20027;-79
2021/09/10 03:02:15;;;;;;;19.63;17.33;;;;;;;23.46;63.53;99407.94;6220391;23;20098;-79
2021/09/10 03:04:45;;;;;;;21.17;16.40;;;;;;;23.47;63.23;99406.94;6220063;23;20031;-79
2021/09/10 03:07:11;;;;;;;21.67;16.83;;;;;;;23.45;63.09;99401.75;6220226;23;20059;-79
2021/09/10 03:09:38;;;;;;;20.73;16.42;;;;;;;23.44;62.92;99397.38;6220308;23;20099;-79
2021/09/10 03:12:05;;;;;;;19.67;16.40;;;;;;;23.41;62.89;99397.75;6220655;23;20119;-79
2021/09/10 03:14:32;;;;;;;20.23;16.60;;;;;;;23.39;62.99;99394.38;6220056;23;20107;-79
2021/09/10 03:16:59;;;;;;;20.02;16.60;;;;;;;23.39;63.05;99391.69;6220621;23;20027;-79
2021/09/10 03:19:27;;;;;;;20.23;17.05;;;;;;;23.36;63.25;99390.22;6219826;23;20107;-79
2021/09/10 03:21:55;;;;;;;20.75;16.70;;;;;;;23.35;63.55;99390.38;6219940;23;20095;-79
2021/09/10 03:24:22;;;;;;;23.60;17.42;;;;;;;23.33;63.65;99398.63;6219954;23;20099;-79
2021/09/10 03:26:48;;;;;;;21.90;17.20;;;;;;;23.32;63.42;99396.94;6220634;23;20031;-79
2021/09/10 03:29:15;;;;;;;18.95;16.70;;;;;;;23.30;63.75;99391.72;6220196;23;20091;-79
2021/09/10 03:31:42;;;;;;;22.05;16.90;;;;;;;23.30;63.85;99391.72;6220177;23;20027;-80
2021/09/10 03:34:09;;;;;;;23.40;16.77;;;;;;;23.30;63.99;99393.59;6220119;23;20103;-79
2021/09/10 03:36:36;;;;;;;21.17;16.42;;;;;;;23.30;63.98;99397.09;6220431;23;20308;-79
2021/09/10 03:39:02;;;;;;;17.35;14.38;;;;;;;23.30;64.01;99389.03;6220443;23;20392;-79
2021/09/10 03:41:29;;;;;;;19.73;15.73;;;;;;;23.30;63.95;99391.72;6219766;23;20099;-79
2021/09/10 03:43:56;;;;;;;21.52;17.25;;;;;;;23.32;64.06;99386.19;6220087;23;20016;-79
2021/09/10 03:46:23;;;;;;;20.65;16.45;;;;;;;23.33;63.85;99387.03;6219927;23;20099;-79
2021/09/10 03:48:50;;;;;;;17.88;15.90;;;;;;;23.35;63.96;99393.06;6220012;23;20075;-79
2021/09/10 03:51:17;;;;;;;20.25;16.42;;;;;;;23.36;63.96;99395.59;6220119;23;20031;-79
2021/09/10 03:53:47;;;;;;;18.73;15.60;;;;;;;23.37;64.37;99393.75;6219383;23;20055;-79
2021/09/10 03:56:14;;;;;;;20.02;15.88;;;;;;;23.39;63.94;99399.75;6219895;23;20066;-79
2021/09/10 03:58:41;;;;;;;20.90;16.13;;;;;;;23.39;63.68;99399.75;6219617;23;20067;-79
2021/09/10 04:01:08;;;;;;;20.35;16.92;;;;;;;23.38;63.62;99396.25;6219347;23;20067;-79
2021/09/10 04:03:35;;;;;;;21.30;16.65;;;;;;;23.37;63.92;99391.91;6219580;23;20074;-79
2021/09/10 04:06:03;;;;;;;20.40;17.00;;;;;;;23.37;63.73;99399.13;6219831;23;20031;-79
2021/09/10 04:08:33;;;;;;;19.52;15.88;;;;;;;23.33;64.24;99397.78;6219686;23;20058;-79
2021/09/10 04:10:59;;;;;;;18.00;16.10;;;;;;;23.33;63.85;99397.78;6219820;23;20062;-79
2021/09/10 04:13:30;;;;;;;27.23;17.25;;;;;;;23.28;64.71;99404.53;6220756;23;20028;-79
2021/09/10 04:15:58;;;;;;;18.90;15.45;;;;;;;23.27;64.01;99402.00;6219694;23;20062;-79
2021/09/10 04:18:25;;;;;;;22.23;17.38;;;;;;;23.26;64.30;99406.56;6220088;23;20056;-79
2021/09/10 04:20:52;;;;;;;19.02;16.60;;;;;;;23.24;64.17;99405.88;6219731;23;20066;-79
2021/09/10 04:23:18;;;;;;;19.30;16.55;;;;;;;23.23;64.45;99398.84;6246201;23;20111;-79
2021/09/10 04:25:45;;;;;;;18.70;16.40;;;;;;;23.23;64.05;99400.69;6246113;23;20079;-79
2021/09/10 04:28:12;;;;;;;20.10;16.65;;;;;;;23.23;64.53;99403.38;6219753;23;20063;-79
2021/09/10 04:30:39;;;;;;;20.85;16.95;;;;;;;23.22;64.24;99399.03;6218820;23;20031;-79
2021/09/10 04:33:06;;;;;;;20.08;15.88;;;;;;;23.20;64.31;99398.34;6218799;23;20059;-79
2021/09/10 04:35:32;;;;;;;20.33;15.70;;;;;;;23.17;64.39;99400.41;6218557;23;20106;-79
2021/09/10 04:37:59;;;;;;;22.33;15.65;;;;;;;23.16;64.48;99395.22;6219151;23;20102;-79
2021/09/10 04:40:26;;;;;;;17.75;14.77;;;;;;;23.15;64.43;99401.59;6218798;23;20099;-79
2021/09/10 04:42:53;;;;;;;19.92;16.33;;;;;;;23.14;64.40;99405.31;6220169;23;20103;-79
2021/09/10 04:45:19;;;;;;;20.48;15.60;;;;;;;23.12;64.44;99408.16;6219757;23;20424;-79
2021/09/10 04:47:46;;;;;;;20.52;15.77;;;;;;;23.11;64.80;99409.19;6219664;23;20106;-79
2021/09/10 04:50:14;;;;;;;22.92;16.08;;;;;;;23.10;64.83;99410.19;6246469;23;20048;-79
2021/09/10 04:52:42;;;;;;;20.67;16.30;;;;;;;23.09;64.44;99415.72;6220017;23;20051;-79
2021/09/10 04:55:09;;;;;;;21.23;15.57;;;;;;;23.07;64.78;99415.06;6219258;23;20351;-79
2021/09/10 04:57:36;;;;;;;18.00;15.88;;;;;;;23.06;64.96;99413.41;6219232;23;20095;-79
2021/09/10 05:00:04;;;;;;;19.42;15.05;;;;;;;23.03;65.06;99420.78;6219302;23;20020;-79
2021/09/10 05:02:31;;;;;;;20.23;16.50;;;;;;;23.07;64.94;99415.06;6245924;23;20074;-79
2021/09/10 05:04:58;;;;;;;17.02;14.02;;;;;;;23.06;64.79;99413.41;6219637;23;20066;-79
2021/09/10 05:07:25;;;;;;;18.42;14.90;;;;;;;23.05;64.79;99407.19;6219707;23;20408;-79
2021/09/10 05:09:53;;;;;;;18.48;15.48;;;;;;;23.04;65.12;99413.59;6219365;23;20063;-79
2021/09/10 05:12:19;;;;;;;19.58;15.00;;;;;;;23.02;64.88;99416.44;6219440;23;20063;-79
2021/09/10 05:14:51;;;;;;;19.80;16.23;;;;;;;23.00;65.13;99420.31;6219154;23;20107;-79
2021/09/10 05:17:19;;;;;;;17.45;14.57;;;;;;;22.97;64.78;99416.16;6220492;23;20457;-79
2021/09/10 05:19:46;;;;;;;17.98;15.15;;;;;;;22.96;64.83;99422.53;6219886;23;20122;-79
2021/09/10 05:22:14;;;;;;;19.33;16.30;;;;;;;22.93;64.92;99428.25;6219588;23;20343;-79
2021/09/10 05:24:40;;;;;;;16.63;14.25;;;;;;;22.93;64.92;99430.09;6219153;23;20071;-79
2021/09/10 05:27:15;;;;;;;19.40;15.35;;;;;;;22.86;65.71;99436.16;6246401;23;20056;-82
2021/09/10 05:29:42;;;;;;;17.55;14.65;;;;;;;22.88;65.38;99433.31;6219283;23;20107;-81
2021/09/10 05:32:10;;;;;;;20.17;14.88;;;;;;;22.86;65.42;99440.69;6218960;23;20107;-81
2021/09/10 05:34:38;;;;;;;17.58;14.50;;;;;;;22.86;65.25;99443.38;6218747;23;20034;-81
2021/09/10 05:37:05;;;;;;;16.15;13.52;;;;;;;22.86;65.55;99451.41;6219190;23;20059;-81
2021/09/10 05:39:50;;;;;;;16.63;13.80;;;;;;;22.81;66.43;99448.44;6219373;23;20067;-82
2021/09/10 05:42:17;;;;;;;17.40;14.80;;;;;;;22.85;65.25;99453.28;6220820;23;20028;-82
2021/09/10 05:44:43;;;;;;;17.50;13.88;;;;;;;22.84;65.46;99453.47;6220855;23;20099;-82
2021/09/10 05:47:10;;;;;;;17.10;13.88;;;;;;;22.85;65.58;99455.13;6221163;23;20071;-81
2021/09/10 05:49:37;;;;;;;17.38;13.25;;;;;;;22.84;65.40;99459.66;6221384;23;20496;-81
2021/09/10 05:52:09;;;;;;;16.58;14.18;;;;;;;22.85;65.66;99464.03;6221066;23;20051;-81
2021/09/10 05:54:37;;;;;;;17.98;13.40;;;;;;;22.85;65.51;99463.19;6220769;23;20051;-81
2021/09/10 05:57:04;;;;;;;18.58;14.77;;;;;;;22.87;65.82;99463.81;6220897;23;20090;-81
2021/09/10 05:59:32;;;;;;;15.82;14.23;;;;;;;22.88;65.93;99468.19;6221434;23;20095;-82
2021/09/10 06:01:59;;;;;;;18.70;15.10;;;;;;;22.89;65.86;99467.19;6220835;23;20098;-81
2021/09/10 06:04:27;;;;;;;20.30;14.70;;;;;;;22.90;65.93;99466.16;6220827;23;20024;-81
2021/09/10 06:06:56;;;;;;;16.15;14.38;;;;;;;22.90;66.19;99458.97;6220976;23;20510;-81
2021/09/10 06:09:22;;;;;;;20.67;14.85;;;;;;;22.93;65.98;99465.81;6221264;23;20119;-80
2021/09/10 06:11:51;;;;;;;19.15;14.68;;;;;;;22.93;66.13;99463.13;6221224;23;20095;-80
2021/09/10 06:14:18;;;;;;;16.45;14.35;;;;;;;22.94;65.62;99467.47;6247326;23;20099;-80
2021/09/10 06:16:44;;;;;;;17.73;13.70;;;;;;;22.95;65.78;99465.66;6221210;23;20455;-80
2021/09/10 06:19:14;;;;;;;18.65;14.05;;;;;;;22.94;66.24;99463.97;6221222;23;20787;-82
2021/09/10 06:21:41;;;;;;;15.25;13.63;;;;;;;22.96;65.64;99468.16;6220897;23;20070;-82
2021/09/10 06:24:11;;;;;;;16.20;13.88;;;;;;;22.95;66.38;99476.38;6220766;23;20402;-82
2021/09/10 06:26:38;;;;;;;16.63;14.18;;;;;;;22.95;65.71;99469.16;6220668;23;20098;-83
2021/09/10 06:29:04;;;;;;;22.80;13.50;;;;;;;22.95;65.83;99473.69;6247641;23;20024;-82
2021/09/10 06:31:31;;;;;;;17.02;13.32;;;;;;;22.94;65.79;99475.53;6220738;23;20070;-83
2021/09/10 06:33:58;;;;;;;19.15;13.80;;;;;;;22.94;66.03;99472.84;6220729;23;20024;-82
2021/09/10 06:36:43;;;;;;;17.35;14.82;;;;;;;22.89;66.58;99478.75;6220838;23;20126;-82
2021/09/10 06:39:10;;;;;;;17.15;14.30;;;;;;;22.96;66.10;99480.72;6220541;23;20103;-82
2021/09/10 06:41:37;;;;;;;15.30;13.73;;;;;;;22.98;66.14;99490.28;6221014;23;20507;-83
2021/09/10 06:44:19;;;;;;;14.93;13.27;;;;;;;22.96;67.09;99495.00;6221241;23;20026;-82
2021/09/10 06:46:46;;;;;;;17.63;13.98;;;;;;;23.02;66.25;99491.59;6220647;23;20059;-82
2021/09/10 06:49:12;;;;;;;18.33;14.10;;;;;;;23.07;66.20;99492.94;6220572;23;20107;-82
2021/09/10 06:51:39;;;;;;;15.45;13.70;;;;;;;23.12;66.74;99498.59;6247582;23;20078;-83
2021/09/10 06:54:06;;;;;;;16.58;14.35;;;;;;;23.17;66.40;99498.91;6219969;23;20399;-82
2021/09/10 06:56:35;;;;;;;17.77;13.93;;;;;;;23.21;66.25;99500.22;6220557;23;20056;-82
2021/09/10 06:59:01;;;;;;;13.25;11.93;;;;;;;23.26;66.17;99494.31;6220308;23;20024;-83
2021/09/10 07:01:29;;;;;;;15.70;13.15;;;;;;;23.30;65.96;99495.66;6220504;23;20024;-82
2021/09/10 07:03:56;;;;;;;20.90;13.57;;;;;;;23.35;65.86;99500.50;6220357;23;20035;-82
2021/09/10 07:06:23;;;;;;;18.60;12.70;;;;;;;23.38;65.77;99506.38;6220815;23;20074;-82
2021/09/10 07:08:50;;;;;;;14.40;12.90;;;;;;;23.40;65.69;99506.19;6220456;23;20031;-82
2021/09/10 07:11:20;;;;;;;17.67;15.55;;;;;;;23.41;65.40;99513.22;6220535;23;20063;-83
2021/09/10 07:13:47;;;;;;;16.98;14.02;;;;;;;23.44;65.39;99518.25;6220311;23;20375;-82
2021/09/10 07:16:20;;;;;;;19.00;14.43;;;;;;;23.42;65.97;99517.59;6220601;23;20020;-82
2021/09/10 07:18:47;;;;;;;;;;;;;;;23.46;64.97;99526.13;6221228;23;20056;-82
2021/09/10 07:21:14;;;;;;;15.23;13.10;;;;;;;23.54;64.81;99515.31;6220208;23;19943;-82
2021/09/10 07:23:40;;;;;;;16.38;13.10;;;;;;;23.55;65.07;99525.88;6220501;23;20505;-82
2021/09/10 07:26:10;;;;;;;14.50;12.43;;;;;;;23.55;65.19;99528.56;6220353;23;20044;-82
2021/09/10 07:28:37;;;;;;;16.58;14.02;;;;;;;23.58;65.22;99532.75;6246403;23;20339;-82
2021/09/10 07:31:06;;;;;;;14.63;13.00;;;;;;;23.60;65.35;99530.75;6219474;23;20028;-82
2021/09/10 07:33:41;;;;;;;17.42;13.68;;;;;;;23.65;65.46;99530.19;6219421;23;20036;-82
2021/09/10 07:36:09;;;;;;;16.95;13.30;;;;;;;23.71;65.08;99532.16;6219458;23;20078;-82
2021/09/10 07:38:41;;;;;;;16.45;13.48;;;;;;;23.76;65.25;99526.25;6246545;23;20020;-82
2021/09/10 07:41:08;;;;;;;16.75;13.27;;;;;;;23.85;64.75;99533.22;6246487;23;20032;-82
2021/09/10 07:43:43;;;;;;;14.57;12.50;;;;;;;23.89;64.80;99528.34;6220135;23;20047;-82
2021/09/10 07:46:10;;;;;;;15.80;14.15;;;;;;;23.99;64.28;99541.53;6220490;23;20091;-83
2021/09/10 07:48:42;;;;;;;17.15;12.57;;;;;;;24.04;64.61;99541.81;6220020;23;20025;-82
2021/09/10 07:51:09;;;;;;;18.60;13.57;;;;;;;24.11;64.17;99539.28;6220405;23;20036;-83
2021/09/10 07:53:37;;;;;;;13.68;11.93;;;;;;;24.16;64.03;99545.78;6219838;23;20036;-83
2021/09/10 07:56:04;;;;;;;16.38;13.32;;;;;;;24.21;64.27;99547.91;6246048;23;20047;-83
2021/09/10 07:58:40;;;;;;;15.05;12.30;;;;;;;24.22;64.46;99546.88;6220325;23;20439;-82
2021/09/10 08:01:07;;;;;;;17.35;15.45;;;;;;;24.28;64.08;99543.47;6219758;23;20031;-83
2021/09/10 08:03:36;;;;;;;15.15;13.63;;;;;;;24.31;63.77;99545.81;6219639;23;20465;-83
2021/09/10 08:06:04;;;;;;;14.15;12.07;;;;;;;24.36;64.07;99547.13;6220082;23;20055;-82
2021/09/10 08:08:32;;;;;;;17.10;13.82;;;;;;;24.40;63.82;99543.88;6219628;23;20100;-83
2021/09/10 08:10:59;;;;;;;14.65;13.23;;;;;;;24.47;63.80;99546.66;6219421;23;20023;-82
2021/09/10 08:13:29;;;;;;;15.63;13.20;;;;;;;24.52;63.82;99541.53;6245964;23;20063;-83
2021/09/10 08:15:57;;;;;;;15.98;13.52;;;;;;;24.60;63.40;99548.72;6219433;23;20016;-83
2021/09/10 08:18:27;;;;;;;16.42;12.32;;;;;;;24.65;63.68;99548.16;6246088;23;20098;-82
2021/09/10 08:20:59;;;;;;;14.07;12.50;;;;;;;24.70;63.04;99551.09;6220936;23;20023;-83
2021/09/10 08:23:27;;;;;;;16.00;12.52;;;;;;;24.73;62.67;99553.44;6220394;23;20390;-83
2021/09/10 08:26:00;;;;;;;16.58;13.88;;;;;;;24.72;62.68;99554.47;6219529;23;20024;-83
2021/09/10 08:28:30;;;;;;;15.32;12.98;;;;;;;24.74;62.63;99555.09;6219622;23;20392;-82
2021/09/10 08:30:59;;;;;;;13.45;11.77;;;;;;;24.78;62.90;99555.59;6246259;23;20020;-83
2021/09/10 08:33:26;;;;;;;15.18;12.23;;;;;;;24.79;62.47;99547.34;6246111;23;20035;-83
2021/09/10 08:35:54;;;;;;;14.82;12.43;;;;;;;24.78;62.48;99553.72;6219376;23;20111;-83
2021/09/10 08:38:21;;;;;;;13.40;12.00;;;;;;;24.80;62.19;99549.00;6220049;23;20343;-82
2021/09/10 08:40:50;;;;;;;13.38;11.98;;;;;;;24.81;62.54;99556.03;6219590;23;20026;-82
2021/09/10 08:43:31;;;;;;;13.00;11.25;;;;;;;24.82;63.13;99555.00;6219554;23;20020;-83
2021/09/10 08:46:03;;;;;;;15.65;12.38;;;;;;;24.93;62.75;99563.69;6220492;23;20020;-83
2021/09/10 08:48:33;;;;;;;15.02;12.43;;;;;;;24.97;62.44;99557.72;6219880;23;20020;-79
2021/09/10 08:51:01;;;;;;;13.70;11.90;;;;;;;25.04;62.08;99557.81;6220204;23;20462;-79
2021/09/10 08:53:32;;;;;;;11.00;9.90;;;;;;;25.08;62.47;99572.56;6219908;23;20028;-79
2021/09/10 08:55:59;;;;;;;12.20;10.57;;;;;;;25.16;62.31;99571.66;6219502;23;20070;-79
2021/09/10 08:58:29;;;;;;;11.45;10.30;;;;;;;25.21;61.81;99565.69;6219849;23;20400;-79
2021/09/10 09:00:59;;;;;;;11.45;9.32;;;;;;;25.29;61.52;99572.81;6219591;23;20032;-79
2021/09/10 09:03:28;;;;;;;10.02;9.02;;;;;;;25.33;61.54;99569.56;6220005;23;20086;-79
2021/09/10 09:05:56;;;;;;;10.00;8.13;;;;;;;25.37;60.81;99580.78;6219797;23;20016;-79
2021/09/10 09:08:23;;;;;;;11.25;8.25;;;;;;;25.40;60.65;99572.34;6219800;23;20922;-79
2021/09/10 09:11:00;;;;;;;9.15;7.97;;;;;;;25.41;60.99;99571.31;6219383;23;20024;-79
2021/09/10 09:13:32;;;;;;;10.45;8.10;;;;;;;25.47;61.16;99572.41;6245944;23;20027;-79
2021/09/10 09:16:24;;;;;;;12.15;8.23;;;;;;;25.50;60.85;99577.44;6219716;23;20447;-79
2021/09/10 09:18:58;;;;;;;9.48;7.18;;;;;;;25.61;61.15;99576.94;6221488;23;20059;-79
2021/09/10 09:21:32;;;;;;;7.80;7.05;;;;;;;25.70;60.32;99577.66;6221666;23;20020;-79
2021/09/10 09:24:18;;;;;;;9.25;7.47;;;;;;;25.78;60.41;99582.09;6221148;23;20020;-79
2021/09/10 09:26:59;;;;;;;8.40;7.05;;;;;;;25.93;60.30;99578.50;6247602;23;20016;-79
2021/09/10 09:29:31;;;;;;;9.93;6.90;;;;;;;26.04;60.26;99569.88;6247927;23;20019;-79
2021/09/10 09:32:02;;;;;;;8.38;7.43;;;;;;;26.11;59.50;99575.34;6221103;23;20071;-79
2021/09/10 09:34:48;;;;;;;7.53;6.47;;;;;;;26.19;60.36;99577.06;6221032;23;20016;-79
2021/09/10 09:37:27;;;;;;;10.00;6.93;;;;;;;26.31;60.48;99578.22;6221162;23;20020;-79
2021/09/10 09:40:00;;;;;;;7.07;6.28;;;;;;;26.47;59.71;99577.13;6222332;23;20031;-79
2021/09/10 09:42:33;;;;;;;8.63;6.72;;;;;;;26.56;58.93;99580.50;6221263;23;20343;-80
2021/09/10 09:45:17;;;;;;;7.85;6.60;;;;;;;26.65;58.80;99575.78;6221245;23;20016;-79
2021/09/10 09:47:48;;;;;;;8.75;6.90;;;;;;;26.77;58.63;99576.06;6221182;23;20078;-79
2021/09/10 09:50:19;;;;;;;8.82;6.43;;;;;;;26.84;58.54;99578.78;6221194;23;20351;-79
2021/09/10 09:52:51;;;;;;;9.35;7.20;;;;;;;26.91;57.84;99579.66;6221428;23;20020;-80
2021/09/10 09:55:18;;;;;;;7.63;6.22;;;;;;;27.00;58.75;99577.66;6221042;23;20083;-82
2021/09/10 09:57:48;;;;;;;6.72;5.95;;;;;;;27.10;57.70;99585.38;6222004;23;20024;-83
2021/09/10 10:00:15;;;;;;;7.55;6.70;;;;;;;27.17;57.34;99583.56;6221557;23;20032;-83
2021/09/10 10:02:42;;;;;;;6.25;5.65;;;;;;;27.24;58.40;99580.88;6221237;23;20415;-83
2021/09/10 10:05:17;;;;;;;6.28;5.72;;;;;;;27.30;57.16;99588.16;6247411;23;20030;-83
2021/09/10 10:07:50;;;;;;;6.97;6.05;;;;;;;27.35;56.42;99580.28;6221344;23;20431;-83
2021/09/10 10:10:25;;;;;;;;;;;;;;;27.39;57.79;99583.44;6221501;23;20020;-83
2021/09/10 10:13:01;;;;;;;6.90;6.10;;;;;;;27.41;56.05;99587.59;6220998;23;19982;-83
2021/09/10 10:15:29;;;;;;;8.43;6.70;;;;;;;27.40;55.93;99577.81;6220245;23;20016;-83
2021/09/10 10:17:58;;;;;;;8.27;5.75;;;;;;;27.37;56.11;99571.97;6220770;23;20857;-83
2021/09/10 10:20:51;;;;;;;7.18;5.97;;;;;;;27.31;57.12;99569.06;6221094;23;20355;-83
2021/09/10 10:23:39;;;;;;;;;;;;;;;27.41;58.10;99570.53;6221395;23;20022;-83
2021/09/10 10:26:07;;;;;;;8.73;6.30;;;;;;;27.60;56.41;99565.38;6227660;23;19995;-83
2021/09/10 10:29:11;;;;;;;6.50;5.93;;;;;;;27.65;55.55;99566.47;6221055;23;20103;-83
2021/09/10 10:32:02;;;;;;;7.38;6.07;;;;;;;27.78;56.32;99568.38;6221011;23;20024;-83
2021/09/10 10:34:30;;;;;;;6.53;5.63;;;;;;;27.93;55.58;99564.63;6220987;23;20368;-83
2021/09/10 10:37:49;;;;;;;9.88;5.88;;;;;;;28.01;55.42;99567.13;6220993;23;20474;-83
2021/09/10 10:40:43;;;;;;;6.07;5.35;;;;;;;28.19;55.28;99561.09;6100930;23;20519;-83
2021/09/10 10:43:29;;;;;;;6.07;5.57;;;;;;;28.33;55.12;99553.81;6139284;23;20095;-83
2021/09/10 10:46:04;;;;;;;6.18;5.18;;;;;;;28.46;53.82;99552.16;6220784;23;20066;-83
2021/09/10 10:48:44;;;;;;;6.85;4.40;;;;;;;28.52;52.36;99566.72;6220743;23;20032;-84
2021/09/10 10:51:16;;;;;;;5.40;4.68;;;;;;;28.57;51.89;99545.25;6220446;23;20029;-84
2021/09/10 10:53:53;;;;;;;6.70;4.88;;;;;;;28.53;51.87;99557.53;6220288;23;20100;-84
2021/09/10 10:56:26;;;;;;;5.82;4.38;;;;;;;28.52;51.83;99551.28;6220708;23;20409;-83
2021/09/10 10:59:26;;;;;;;4.72;4.10;;;;;;;28.50;53.02;99547.97;6220490;23;20122;-83
2021/09/10 11:02:31;;;;;;;6.43;5.80;;;;;;;28.60;52.55;99548.34;6100337;23;20081;-84
2021/09/10 11:05:25;;;;;;;6.60;4.50;;;;;;;28.86;53.79;99548.50;6111532;23;20110;-83
2021/09/10 11:07:52;;;;;;;4.95;4.53;;;;;;;29.21;53.47;99548.19;6220439;23;20027;-84
2021/09/10 11:10:21;;;;;;;4.38;3.88;;;;;;;29.48;51.89;99544.47;6220611;23;20712;-84
2021/09/10 11:12:53;;;;;;;5.50;4.40;;;;;;;29.75;51.67;99539.75;6220361;23;20513;-84
2021/09/10 11:15:24;;;;;;;4.23;3.87;;;;;;;30.06;50.72;99541.81;6220179;23;20020;-84
2021/09/10 11:18:12;;;;;;;4.78;3.90;;;;;;;30.50;51.74;99539.13;6220527;23;20507;-84
2021/09/10 11:20:45;;;;;;;6.00;3.53;;;;;;;31.10;50.98;99525.94;6220376;23;20034;-84
2021/09/10 11:23:16;;;;;;;7.53;3.58;;;;;;;31.71;48.82;99529.47;6220112;23;20024;-84
2021/09/10 11:25:44;;;;;;;4.32;3.22;;;;;;;32.33;47.52;99527.38;6220031;23;20098;-84
2021/09/10 11:28:29;;;;;;;3.75;2.90;;;;;;;32.91;46.45;99515.00;6220681;23;20024;-84
2021/09/10 11:30:57;;;;;;;3.65;2.63;;;;;;;33.45;46.19;99516.56;6220473;23;20024;-84
2021/09/10 11:33:25;;;;;;;3.00;2.70;;;;;;;33.90;44.41;99520.34;6246722;23;20024;-84
2021/09/10 11:35:54;;;;;;;3.92;2.72;;;;;;;34.32;43.66;99527.28;6220389;23;20039;-84